Anderson, Missouri
Current Conditions -  °F | °C
As of 8:15 AM on Thursday 27 Nov 2014 (Local Time) from KGMJ Reporting Station
Clear Clear  
Wind Chill: 30°   Ceiling: Unl
Heat Index: 30°   Visibility: 7mi
Dew Point: 27°   Wind: 3mph
Humidity: 86%   Direction: 300°WNW
Pressure: 30.56"   Gusts: NA
Location:  36.65°N, 94.44°W
Report Text: KGMJ 271415Z AUTO 30003KT 7SM CLR M01/M03 A3056 RMK AO2
Loading
Personal Weather Stations






























Interactive Weather Map New forecast layout! Learn more

10-Day Weather Forecast

Advertisements
Track Severe Weather on mobile